createdAt,value
2023-08-28T00:00:31.362Z,17.02
2023-08-28T00:03:34.645Z,17.00
2023-08-28T00:06:39.289Z,17.06
2023-08-28T00:09:42.530Z,17.09
2023-08-28T00:12:46.452Z,17.21
2023-08-28T00:15:49.717Z,17.12
2023-08-28T00:18:53.014Z,17.12
2023-08-28T00:21:58.207Z,17.13
2023-08-28T00:25:01.420Z,17.10
2023-08-28T00:28:04.866Z,17.12
2023-08-28T00:31:08.140Z,17.18
2023-08-28T00:34:11.626Z,17.17
2023-08-28T00:37:17.245Z,17.22
2023-08-28T00:40:20.709Z,17.14
2023-08-28T00:43:24.130Z,17.29
2023-08-28T00:46:28.145Z,17.31
2023-08-28T00:49:32.430Z,17.30
2023-08-28T00:52:37.338Z,17.29
2023-08-28T00:55:40.575Z,17.37
2023-08-28T00:58:43.880Z,17.32
2023-08-28T01:01:47.303Z,17.42
2023-08-28T01:04:50.612Z,17.29
2023-08-28T01:07:59.915Z,17.39
2023-08-28T01:11:12.907Z,17.36
2023-08-28T01:14:24.128Z,17.29
2023-08-28T01:17:29.000Z,17.25
2023-08-28T01:20:35.440Z,17.14
2023-08-28T01:23:46.451Z,17.15
2023-08-28T01:26:51.797Z,17.14
2023-08-28T01:30:12.356Z,17.18
2023-08-28T01:33:17.053Z,17.25
2023-08-28T01:36:25.690Z,17.38
2023-08-28T01:39:38.777Z,17.41
2023-08-28T01:42:45.719Z,17.36
2023-08-28T01:45:51.600Z,17.48
2023-08-28T01:48:55.108Z,17.31
2023-08-28T01:52:00.028Z,17.42
2023-08-28T01:55:03.820Z,17.18
2023-08-28T01:58:08.467Z,17.24
2023-08-28T02:01:12.233Z,17.29
2023-08-28T02:04:15.776Z,17.23
2023-08-28T02:07:19.032Z,17.16
2023-08-28T02:10:23.219Z,17.15
2023-08-28T02:13:28.418Z,17.13
2023-08-28T02:16:31.746Z,17.12
2023-08-28T02:19:35.072Z,17.14
2023-08-28T02:22:38.427Z,17.08
2023-08-28T02:25:42.905Z,17.12
2023-08-28T02:28:48.576Z,17.07
2023-08-28T02:31:51.823Z,17.14
2023-08-28T02:34:55.034Z,17.10
2023-08-28T02:37:58.887Z,17.07
2023-08-28T02:41:06.869Z,17.25
2023-08-28T02:44:11.438Z,17.11
2023-08-28T02:47:16.494Z,17.13
2023-08-28T02:50:19.806Z,17.15
2023-08-28T02:53:23.059Z,17.08
2023-08-28T02:56:27.882Z,17.04
2023-08-28T02:59:32.910Z,17.03
2023-08-28T03:02:36.439Z,17.00
2023-08-28T03:05:39.790Z,17.04
2023-08-28T03:08:43.083Z,17.05
2023-08-28T03:11:46.417Z,17.12
2023-08-28T03:14:50.980Z,17.12
2023-08-28T03:17:54.418Z,17.07
2023-08-28T03:20:57.695Z,17.21
2023-08-28T03:24:01.006Z,17.16
2023-08-28T03:27:04.243Z,16.96
2023-08-28T03:30:10.756Z,17.06
2023-08-28T03:33:14.042Z,17.02
2023-08-28T03:36:17.302Z,17.10
2023-08-28T03:39:20.528Z,16.95
2023-08-28T03:42:23.761Z,16.94
2023-08-28T03:45:29.144Z,16.95
2023-08-28T03:48:32.529Z,16.90
2023-08-28T03:51:35.801Z,16.90
2023-08-28T03:54:39.134Z,16.92
2023-08-28T03:57:42.397Z,16.85
2023-08-28T04:00:47.036Z,16.83
2023-08-28T04:03:50.331Z,16.80
2023-08-28T04:06:53.742Z,16.79
2023-08-28T04:09:56.945Z,16.76
2023-08-28T04:13:00.320Z,16.82
2023-08-28T04:16:06.989Z,16.79
2023-08-28T04:19:10.308Z,16.79
2023-08-28T04:22:13.632Z,16.84
2023-08-28T04:25:17.100Z,16.92
2023-08-28T04:28:21.096Z,17.00
2023-08-28T04:31:25.951Z,16.91
2023-08-28T04:34:29.224Z,16.90
2023-08-28T04:37:32.566Z,16.92
2023-08-28T04:40:35.848Z,17.01
2023-08-28T04:43:39.061Z,16.95
2023-08-28T04:46:43.849Z,16.98
2023-08-28T04:49:47.108Z,17.08
2023-08-28T04:52:52.214Z,17.14
2023-08-28T04:55:56.364Z,17.19
2023-08-28T04:59:00.116Z,17.26
2023-08-28T05:02:04.866Z,17.31
2023-08-28T05:05:09.160Z,17.21
2023-08-28T05:08:12.453Z,17.36
2023-08-28T05:11:15.655Z,17.33
2023-08-28T05:14:19.329Z,17.22
2023-08-28T05:17:23.964Z,17.33
2023-08-28T05:20:27.292Z,17.41
2023-08-28T05:23:30.605Z,17.25
2023-08-28T05:26:33.901Z,17.38
2023-08-28T05:29:37.217Z,17.32
2023-08-28T05:32:41.898Z,17.28
2023-08-28T05:35:45.611Z,17.29
2023-08-28T05:38:48.855Z,17.28
2023-08-28T05:41:53.040Z,17.34
2023-08-28T05:44:56.408Z,17.42
2023-08-28T05:48:01.194Z,17.35
2023-08-28T05:51:04.851Z,17.37
2023-08-28T05:54:08.534Z,17.41
2023-08-28T05:57:11.815Z,17.25
2023-08-28T06:00:16.248Z,17.38
2023-08-28T06:03:21.397Z,17.26
2023-08-28T06:06:24.980Z,17.23
2023-08-28T06:09:28.844Z,17.14
2023-08-28T06:12:32.162Z,16.92
2023-08-28T06:15:35.647Z,17.00
2023-08-28T06:18:40.250Z,17.00
2023-08-28T06:21:46.338Z,17.01
2023-08-28T06:24:54.033Z,17.02
2023-08-28T06:27:57.540Z,17.15
2023-08-28T06:31:00.947Z,17.31
2023-08-28T06:34:05.661Z,17.12
2023-08-28T06:37:08.948Z,17.46
2023-08-28T06:40:12.573Z,17.49
2023-08-28T06:43:15.768Z,17.36
2023-08-28T06:46:19.588Z,17.31
2023-08-28T06:49:24.204Z,17.44
2023-08-28T06:52:27.676Z,17.74
2023-08-28T06:55:30.944Z,17.67
2023-08-28T06:58:34.617Z,17.84
2023-08-28T07:01:37.830Z,17.98
2023-08-28T07:04:42.523Z,18.25
2023-08-28T07:07:45.885Z,18.17
2023-08-28T07:10:49.216Z,18.32
2023-08-28T07:13:52.468Z,18.19
2023-08-28T07:16:56.149Z,18.35
2023-08-28T07:20:00.831Z,18.07
2023-08-28T07:23:04.876Z,18.18
2023-08-28T07:26:08.887Z,18.54
2023-08-28T07:29:12.288Z,18.48
2023-08-28T07:32:15.714Z,18.13
2023-08-28T07:35:20.429Z,18.50
2023-08-28T07:38:23.729Z,18.53
2023-08-28T07:41:27.016Z,18.47
2023-08-28T07:44:30.295Z,18.55
2023-08-28T07:47:33.585Z,18.66
2023-08-28T07:50:38.183Z,18.84
2023-08-28T07:53:41.575Z,18.65
2023-08-28T07:56:44.844Z,18.94
2023-08-28T07:59:48.220Z,19.05
2023-08-28T08:02:52.799Z,18.90
2023-08-28T08:05:57.736Z,18.80
2023-08-28T08:09:00.927Z,18.76
2023-08-28T08:12:05.233Z,18.60
2023-08-28T08:15:09.910Z,18.48
2023-08-28T08:18:13.188Z,18.43
2023-08-28T08:21:18.024Z,18.23
2023-08-28T08:24:21.289Z,18.33
2023-08-28T08:27:26.456Z,18.56
2023-08-28T08:30:31.602Z,18.78
2023-08-28T08:33:34.910Z,18.58
2023-08-28T08:36:40.678Z,18.47
2023-08-28T08:39:44.241Z,18.28
2023-08-28T08:42:47.819Z,18.09
2023-08-28T08:45:54.478Z,18.07
2023-08-28T08:49:02.795Z,18.11
2023-08-28T08:52:10.993Z,18.24
2023-08-28T08:55:22.252Z,18.26
2023-08-28T08:58:27.895Z,18.43
2023-08-28T09:01:32.704Z,18.55
2023-08-28T09:04:37.216Z,18.61
2023-08-28T09:07:41.921Z,18.64
2023-08-28T09:10:47.450Z,18.89
2023-08-28T09:13:50.899Z,18.83
2023-08-28T09:16:54.183Z,18.95
2023-08-28T09:19:57.494Z,19.04
2023-08-28T09:23:03.224Z,18.91
2023-08-28T09:26:06.710Z,18.55
2023-08-28T09:29:11.124Z,18.88
2023-08-28T09:32:14.818Z,18.87
2023-08-28T09:35:18.153Z,18.76
2023-08-28T09:38:22.998Z,18.73
2023-08-28T09:41:37.758Z,18.93
2023-08-28T09:44:40.957Z,18.62
2023-08-28T09:47:45.313Z,19.05
2023-08-28T09:50:53.994Z,19.26
2023-08-28T09:54:02.838Z,18.90
2023-08-28T09:57:16.741Z,19.21
2023-08-28T10:00:20.428Z,19.09
2023-08-28T10:03:25.776Z,19.34
2023-08-28T10:06:31.083Z,19.40
2023-08-28T10:09:36.895Z,19.33
2023-08-28T10:12:42.909Z,19.53
2023-08-28T10:15:53.438Z,19.74
2023-08-28T10:19:01.997Z,19.96
2023-08-28T10:22:09.273Z,19.87
2023-08-28T10:25:15.804Z,19.43
2023-08-28T10:28:20.759Z,19.25
2023-08-28T10:31:25.399Z,19.88
2023-08-28T10:34:30.430Z,19.90
2023-08-28T10:37:34.544Z,19.83
2023-08-28T10:40:39.610Z,19.95
2023-08-28T10:43:43.915Z,20.01
2023-08-28T10:46:48.881Z,19.75
2023-08-28T10:49:55.751Z,19.89
2023-08-28T10:53:00.723Z,20.13
2023-08-28T10:56:07.473Z,19.87
2023-08-28T10:59:32.035Z,19.57
2023-08-28T11:03:09.986Z,19.38
2023-08-28T11:06:40.557Z,19.18
2023-08-28T11:09:44.194Z,19.13
2023-08-28T11:12:57.634Z,19.05
2023-08-28T11:16:05.731Z,19.26
2023-08-28T11:19:09.242Z,19.22
2023-08-28T11:22:13.154Z,19.39
2023-08-28T11:25:41.716Z,19.51
2023-08-28T11:28:47.573Z,19.71
2023-08-28T11:31:52.104Z,19.70
2023-08-28T11:34:55.332Z,19.67
2023-08-28T11:37:58.536Z,19.51
2023-08-28T11:41:05.771Z,19.43
2023-08-28T11:44:14.438Z,19.53
2023-08-28T11:47:17.743Z,19.23
2023-08-28T11:50:21.136Z,19.32
2023-08-28T11:53:30.969Z,19.28
2023-08-28T11:56:36.428Z,19.41
2023-08-28T11:59:42.855Z,19.37
2023-08-28T12:02:50.198Z,19.32
2023-08-28T12:06:02.727Z,19.27
2023-08-28T12:09:06.245Z,19.81
2023-08-28T12:12:09.637Z,19.86
2023-08-28T12:15:14.232Z,19.70
2023-08-28T12:18:17.550Z,19.65
2023-08-28T12:21:34.642Z,19.23
2023-08-28T12:24:41.911Z,19.51
2023-08-28T12:27:47.610Z,19.60
2023-08-28T12:30:55.127Z,19.51
2023-08-28T12:33:58.609Z,19.48
2023-08-28T12:37:09.298Z,19.60
2023-08-28T12:40:13.568Z,19.53
2023-08-28T12:43:17.430Z,19.90
2023-08-28T12:46:22.330Z,19.48
2023-08-28T12:49:25.822Z,19.45
2023-08-28T12:52:31.387Z,19.51
2023-08-28T12:55:34.954Z,19.56
2023-08-28T12:58:38.263Z,19.68
2023-08-28T13:01:43.915Z,19.47
2023-08-28T13:04:47.428Z,19.32
2023-08-28T13:07:50.810Z,19.29
2023-08-28T13:10:54.231Z,19.26
2023-08-28T13:13:57.541Z,19.12
2023-08-28T13:17:02.145Z,19.35
2023-08-28T13:20:06.123Z,19.49
2023-08-28T13:23:09.385Z,19.07
2023-08-28T13:26:12.684Z,19.30
2023-08-28T13:29:16.218Z,19.32
2023-08-28T13:32:21.044Z,19.53
2023-08-28T13:35:25.583Z,19.44
2023-08-28T13:38:28.869Z,19.45
2023-08-28T13:41:32.772Z,19.46
2023-08-28T13:44:37.260Z,19.51
2023-08-28T13:47:42.399Z,19.58
2023-08-28T13:50:45.702Z,19.38
2023-08-28T13:53:49.138Z,19.40
2023-08-28T13:56:52.421Z,19.08
2023-08-28T13:59:55.655Z,19.38
2023-08-28T14:03:00.423Z,19.46
2023-08-28T14:06:04.257Z,19.39
2023-08-28T14:09:08.085Z,19.24
2023-08-28T14:12:11.304Z,19.32
2023-08-28T14:15:14.914Z,19.48
2023-08-28T14:18:22.302Z,19.63
2023-08-28T14:21:25.833Z,19.62
2023-08-28T14:24:29.205Z,19.38
2023-08-28T14:27:46.463Z,19.41
2023-08-28T14:30:56.312Z,19.35
2023-08-28T14:34:02.241Z,19.44
2023-08-28T14:37:05.998Z,19.27
2023-08-28T14:40:10.922Z,19.23
2023-08-28T14:43:14.108Z,19.14
2023-08-28T14:46:17.437Z,19.21
2023-08-28T14:49:25.217Z,19.23
2023-08-28T14:52:28.567Z,19.40
2023-08-28T14:55:31.794Z,19.08
2023-08-28T14:58:35.089Z,19.10
2023-08-28T15:01:38.493Z,19.17
2023-08-28T15:04:43.128Z,18.88
2023-08-28T15:07:46.344Z,18.80
2023-08-28T15:10:51.138Z,18.98
2023-08-28T15:13:54.419Z,19.05
2023-08-28T15:16:57.875Z,19.11
2023-08-28T15:20:03.078Z,19.07
2023-08-28T15:23:09.761Z,19.00
2023-08-28T15:26:16.990Z,19.11
2023-08-28T15:29:21.996Z,18.94
2023-08-28T15:32:27.181Z,18.92
2023-08-28T15:35:32.879Z,18.98
2023-08-28T15:38:36.068Z,18.92
2023-08-28T15:41:39.304Z,18.92
2023-08-28T15:44:42.611Z,18.83
2023-08-28T15:47:47.611Z,18.75
2023-08-28T15:50:52.347Z,18.68
2023-08-28T15:53:55.584Z,18.75
2023-08-28T15:56:58.806Z,18.57
2023-08-28T16:00:02.028Z,18.82
2023-08-28T16:03:09.275Z,18.56
2023-08-28T16:06:13.910Z,18.69
2023-08-28T16:09:17.253Z,18.88
2023-08-28T16:12:20.517Z,18.77
2023-08-28T16:15:24.195Z,19.03
2023-08-28T16:18:27.479Z,18.92
2023-08-28T16:21:35.962Z,18.78
2023-08-28T16:24:39.220Z,18.62
2023-08-28T16:27:45.225Z,18.57
2023-08-28T16:30:49.305Z,18.70
2023-08-28T16:33:52.737Z,18.66
2023-08-28T16:36:57.400Z,18.63
2023-08-28T16:40:00.697Z,18.43
2023-08-28T16:43:04.319Z,18.50
2023-08-28T16:46:07.779Z,18.43
2023-08-28T16:49:10.971Z,18.71
2023-08-28T16:52:15.588Z,18.63
2023-08-28T16:55:18.981Z,18.64
2023-08-28T16:58:22.432Z,18.64
2023-08-28T17:01:25.710Z,18.52
2023-08-28T17:04:29.137Z,18.45
2023-08-28T17:07:33.854Z,18.65
2023-08-28T17:10:37.124Z,18.69
2023-08-28T17:13:40.358Z,18.57
2023-08-28T17:16:43.762Z,18.34
2023-08-28T17:19:46.981Z,18.66
2023-08-28T17:22:51.603Z,18.40
2023-08-28T17:25:54.886Z,18.39
2023-08-28T17:28:59.047Z,18.34
2023-08-28T17:32:02.366Z,18.24
2023-08-28T17:35:06.227Z,18.35
2023-08-28T17:38:10.828Z,18.24
2023-08-28T17:41:14.091Z,18.29
2023-08-28T17:44:17.719Z,18.39
2023-08-28T17:47:20.917Z,18.31
2023-08-28T17:50:24.779Z,18.31
2023-08-28T17:53:29.360Z,18.22
2023-08-28T17:56:35.875Z,18.21
2023-08-28T17:59:39.139Z,18.26
2023-08-28T18:02:59.849Z,18.07
2023-08-28T18:06:05.606Z,18.13
2023-08-28T18:09:10.478Z,18.09
2023-08-28T18:12:14.047Z,18.19
2023-08-28T18:15:18.371Z,18.26
2023-08-28T18:18:21.763Z,18.15
2023-08-28T18:21:25.707Z,18.00
2023-08-28T18:24:30.977Z,18.13
2023-08-28T18:27:37.972Z,18.21
2023-08-28T18:30:47.347Z,18.27
2023-08-28T18:33:50.844Z,18.19
2023-08-28T18:36:54.198Z,18.18
2023-08-28T18:39:59.295Z,18.18
2023-08-28T18:43:04.826Z,18.12
2023-08-28T18:46:10.850Z,18.26
2023-08-28T18:49:14.292Z,18.29
2023-08-28T18:52:21.851Z,18.18
2023-08-28T18:55:32.852Z,18.24
2023-08-28T18:58:36.678Z,18.11
2023-08-28T19:01:39.971Z,18.22
2023-08-28T19:04:43.328Z,18.03
2023-08-28T19:07:46.605Z,18.17
2023-08-28T19:10:51.226Z,17.97
2023-08-28T19:13:54.504Z,17.97
2023-08-28T19:16:57.809Z,17.89
2023-08-28T19:20:02.494Z,18.14
2023-08-28T19:23:06.187Z,18.10
2023-08-28T19:26:11.128Z,18.15
2023-08-28T19:29:14.425Z,18.26
2023-08-28T19:32:18.044Z,18.17
2023-08-28T19:35:21.996Z,18.26
2023-08-28T19:38:25.220Z,18.27
2023-08-28T19:41:29.862Z,18.32
2023-08-28T19:44:33.169Z,18.27
2023-08-28T19:47:36.722Z,18.30
2023-08-28T19:50:39.979Z,18.14
2023-08-28T19:53:43.771Z,18.23
2023-08-28T19:56:48.537Z,18.08
2023-08-28T19:59:51.867Z,17.99
2023-08-28T20:02:55.368Z,18.12
2023-08-28T20:06:03.127Z,18.25
2023-08-28T20:09:07.262Z,18.22
2023-08-28T20:12:13.799Z,18.23
2023-08-28T20:15:18.098Z,18.21
2023-08-28T20:18:23.823Z,18.22
2023-08-28T20:21:27.832Z,18.33
2023-08-28T20:24:33.071Z,18.17
2023-08-28T20:27:39.389Z,18.10
2023-08-28T20:30:45.047Z,18.05
2023-08-28T20:33:48.278Z,18.03
2023-08-28T20:36:51.704Z,18.07
2023-08-28T20:39:54.993Z,18.11
2023-08-28T20:42:59.632Z,18.06
2023-08-28T20:46:03.634Z,18.13
2023-08-28T20:49:07.334Z,18.08
2023-08-28T20:52:11.416Z,18.14
2023-08-28T20:55:14.796Z,18.03
2023-08-28T20:58:19.483Z,18.13
2023-08-28T21:01:23.279Z,18.09
2023-08-28T21:04:26.496Z,17.96
2023-08-28T21:07:29.720Z,18.11
2023-08-28T21:10:34.659Z,18.23
2023-08-28T21:13:39.481Z,17.98
2023-08-28T21:16:42.859Z,18.07
2023-08-28T21:19:46.102Z,18.11
2023-08-28T21:22:51.213Z,18.13
2023-08-28T21:25:58.681Z,17.81
2023-08-28T21:29:03.361Z,17.78
2023-08-28T21:32:08.368Z,17.80
2023-08-28T21:35:11.732Z,17.86
2023-08-28T21:38:15.046Z,17.82
2023-08-28T21:41:18.304Z,17.75
2023-08-28T21:44:22.963Z,17.67
2023-08-28T21:47:26.462Z,17.83
2023-08-28T21:50:48.862Z,17.54
2023-08-28T21:54:10.932Z,17.63
2023-08-28T21:57:33.014Z,17.54
2023-08-28T22:00:57.367Z,17.19
2023-08-28T22:04:19.190Z,17.07
2023-08-28T22:07:40.872Z,17.06
2023-08-28T22:11:04.712Z,17.02
2023-08-28T22:14:22.607Z,16.97
2023-08-28T22:17:27.878Z,16.85
2023-08-28T22:20:31.492Z,16.89
2023-08-28T22:23:34.809Z,16.82
2023-08-28T22:26:38.173Z,16.76
2023-08-28T22:29:41.518Z,16.60
2023-08-28T22:32:47.215Z,16.51
